メインページ
METAR-TAF:

METAR-TAF

空港 :

サスカトゥーン, サスカチュワン州, カナダ

サスカトゥーン・ジョン・G・ディーフェンベーカー国際空港

緯度: 52-10N, 経度: 106-41W, 海抜: 501m

現時点の気象観測

当レポートは1時間3分前の21:00(UTC)に作成
南西の風 10kt
気温 -16°C
湿度 65%
気圧 1019 hPa
視程: 24.1km
高度20000ftの雲はほとんどない

METAR: CYXE 192100Z 23010KT 15SM FEW200 M16/M21 A3008 RMK CI1 SLP246

時間: 16:03 (22:03 UTC)

予報

当レポートは2時間0分前の20:03(UTC)に作成
予報は19日の 20時(UTC)から 20日の 18時(UTC)まで有効
南西の風 8kt
視程: 10km
高度5000ftの雲はほとんどない
20日の 0200時(UTC)から
南西の風 10kt
視程: 10km
高度24000ftの雲はほとんどない
20日の 1100時(UTC)から
南/南西の風 10kt
視程: 10km
高度3000ftの千切れ雲あり

TAF: CYXE 192003Z 1920/2018 22008KT P6SM FEW050 FM200200 23010KT P6SM FEW240 FM201100 20010KT P6SM BKN030 RMK NXT FCST BY 200000Z

4,000以上の空港の気象観測と天気予報(METAR報とTAF報)

利用可能な観測所は地図上に黄色い丸と赤い丸で示す。

丸の上にカーソルを重ねると観測所名を参照できる。

次にクリックすると気象観測と天気予報を参照できる。

マップの切り替え:黒色「×」印の緑ボタンをクリックして拡大、「-」印の緑ボタンをクリックして縮小、緑色の三角印をクリックして隣りの地図に切り替え


METAR-TAF: